createdAt,value
2023-04-11T00:02:10.008Z,2.42
2023-04-11T00:04:41.811Z,2.65
2023-04-11T00:07:13.465Z,2.67
2023-04-11T00:09:45.297Z,1.58
2023-04-11T00:12:16.796Z,2.25
2023-04-11T00:14:48.569Z,2.13
2023-04-11T00:17:20.074Z,1.65
2023-04-11T00:19:52.116Z,1.67
2023-04-11T00:22:23.572Z,1.93
2023-04-11T00:24:55.361Z,2.15
2023-04-11T00:27:26.823Z,1.88
2023-04-11T00:29:58.516Z,1.80
2023-04-11T00:32:30.031Z,1.90
2023-04-11T00:35:01.591Z,1.70
2023-04-11T00:37:33.096Z,1.90
2023-04-11T00:40:05.173Z,1.80
2023-04-11T00:42:36.659Z,1.73
2023-04-11T00:45:08.161Z,1.80
2023-04-11T00:47:39.686Z,1.50
2023-04-11T00:50:11.522Z,2.03
2023-04-11T00:52:42.988Z,1.77
2023-04-11T00:55:14.847Z,1.80
2023-04-11T00:57:46.361Z,1.98
2023-04-11T01:00:17.908Z,2.05
2023-04-11T01:02:49.861Z,2.03
2023-04-11T01:05:21.434Z,2.17
2023-04-11T01:07:53.396Z,1.80
2023-04-11T01:10:24.878Z,1.80
2023-04-11T01:12:56.847Z,1.70
2023-04-11T01:15:28.321Z,2.03
2023-04-11T01:18:00.260Z,1.83
2023-04-11T01:20:31.760Z,2.28
2023-04-11T01:23:03.747Z,2.28
2023-04-11T01:25:35.239Z,2.00
2023-04-11T01:28:07.076Z,1.55
2023-04-11T01:30:38.584Z,1.88
2023-04-11T01:33:10.501Z,1.67
2023-04-11T01:35:41.978Z,1.67
2023-04-11T01:38:13.780Z,1.85
2023-04-11T01:40:45.274Z,1.50
2023-04-11T01:43:17.031Z,1.58
2023-04-11T01:45:48.496Z,1.40
2023-04-11T01:48:20.585Z,1.88
2023-04-11T01:50:52.115Z,1.65
2023-04-11T01:53:24.029Z,1.98
2023-04-11T01:55:55.540Z,1.88
2023-04-11T01:58:27.394Z,1.60
2023-04-11T02:00:58.890Z,2.35
2023-04-11T02:03:30.614Z,1.95
2023-04-11T02:06:02.207Z,2.05
2023-04-11T02:08:33.723Z,1.92
2023-04-11T02:11:05.221Z,1.70
2023-04-11T02:13:36.728Z,1.55
2023-04-11T02:16:08.227Z,1.85
2023-04-11T02:18:39.735Z,1.67
2023-04-11T02:21:11.216Z,1.95
2023-04-11T02:23:42.900Z,1.85
2023-04-11T02:26:14.358Z,2.03
2023-04-11T02:28:46.158Z,2.17
2023-04-11T02:31:17.725Z,1.60
2023-04-11T02:33:49.616Z,1.50
2023-04-11T02:36:21.123Z,1.60
2023-04-11T02:38:52.961Z,1.98
2023-04-11T02:41:24.469Z,1.95
2023-04-11T02:43:55.984Z,1.42
2023-04-11T02:46:27.475Z,1.55
2023-04-11T02:48:59.584Z,1.55
2023-04-11T02:51:31.068Z,2.13
2023-04-11T02:54:02.540Z,1.80
2023-04-11T02:56:34.063Z,1.48
2023-04-11T02:59:05.535Z,2.22
2023-04-11T03:01:37.081Z,2.10
2023-04-11T03:04:08.636Z,2.00
2023-04-11T03:06:40.485Z,2.30
2023-04-11T03:09:11.987Z,1.80
2023-04-11T03:11:45.023Z,2.13
2023-04-11T03:14:17.658Z,2.35
2023-04-11T03:16:49.384Z,2.00
2023-04-11T03:19:20.867Z,1.75
2023-04-11T03:21:52.671Z,1.80
2023-04-11T03:24:24.165Z,1.85
2023-04-11T03:26:56.045Z,2.33
2023-04-11T03:29:27.539Z,1.63
2023-04-11T03:31:59.402Z,2.28
2023-04-11T03:34:30.891Z,2.35
2023-04-11T03:37:02.779Z,2.00
2023-04-11T03:39:34.260Z,2.00
2023-04-11T03:42:06.273Z,2.30
2023-04-11T03:44:37.752Z,1.93
2023-04-11T03:47:09.596Z,2.10
2023-04-11T03:49:41.611Z,1.77
2023-04-11T03:52:14.104Z,2.00
2023-04-11T03:54:47.680Z,2.17
2023-04-11T03:57:19.422Z,1.73
2023-04-11T03:59:51.084Z,2.20
2023-04-11T04:02:22.649Z,1.65
2023-04-11T04:04:54.224Z,1.27
2023-04-11T04:07:25.740Z,1.33
2023-04-11T04:09:57.568Z,1.80
2023-04-11T04:12:29.064Z,1.77
2023-04-11T04:15:00.721Z,1.67
2023-04-11T04:17:32.218Z,1.60
2023-04-11T04:20:03.947Z,1.38
2023-04-11T04:22:35.465Z,2.28
2023-04-11T04:25:06.970Z,1.67
2023-04-11T04:27:38.450Z,1.60
2023-04-11T04:30:09.982Z,1.23
2023-04-11T04:32:41.513Z,1.63
2023-04-11T04:35:13.182Z,1.40
2023-04-11T04:37:44.688Z,1.63
2023-04-11T04:40:16.575Z,1.95
2023-04-11T04:42:48.050Z,2.33
2023-04-11T04:45:19.813Z,1.88
2023-04-11T04:47:51.342Z,1.55
2023-04-11T04:50:23.256Z,1.80
2023-04-11T04:52:54.739Z,1.60
2023-04-11T04:55:26.512Z,1.55
2023-04-11T04:57:57.987Z,2.00
2023-04-11T05:00:29.516Z,1.92
2023-04-11T05:03:01.051Z,2.38
2023-04-11T05:05:32.694Z,1.40
2023-04-11T05:08:04.144Z,1.42
2023-04-11T05:10:35.611Z,1.60
2023-04-11T05:13:07.049Z,1.80
2023-04-11T05:15:38.536Z,1.88
2023-04-11T05:18:10.052Z,1.27
2023-04-11T05:20:41.734Z,1.70
2023-04-11T05:23:13.193Z,1.55
2023-04-11T05:25:44.673Z,1.77
2023-04-11T05:28:16.118Z,1.95
2023-04-11T05:30:47.928Z,1.50
2023-04-11T05:33:19.400Z,1.48
2023-04-11T05:35:51.314Z,1.65
2023-04-11T05:38:22.791Z,1.48
2023-04-11T05:40:54.661Z,2.30
2023-04-11T05:43:26.108Z,1.73
2023-04-11T05:45:57.774Z,1.77
2023-04-11T05:48:29.270Z,1.67
2023-04-11T05:51:01.124Z,1.40
2023-04-11T05:53:32.602Z,1.83
2023-04-11T05:56:04.078Z,1.77
2023-04-11T05:58:35.532Z,2.20
2023-04-11T06:01:07.543Z,1.63
2023-04-11T06:03:39.258Z,1.67
2023-04-11T06:06:11.127Z,1.60
2023-04-11T06:08:42.578Z,1.73
2023-04-11T06:11:14.370Z,2.38
2023-04-11T06:13:45.874Z,2.05
2023-04-11T06:16:17.818Z,1.80
2023-04-11T06:18:49.331Z,1.90
2023-04-11T06:21:21.004Z,1.88
2023-04-11T06:23:52.516Z,1.83
2023-04-11T06:26:24.327Z,1.27
2023-04-11T06:28:55.779Z,1.70
2023-04-11T06:31:27.621Z,2.28
2023-04-11T06:33:59.105Z,2.00
2023-04-11T06:36:30.584Z,2.05
2023-04-11T06:39:02.098Z,1.55
2023-04-11T06:41:33.696Z,1.70
2023-04-11T06:44:05.171Z,2.10
2023-04-11T06:46:36.728Z,1.92
2023-04-11T06:49:08.213Z,1.80
2023-04-11T06:51:39.956Z,1.55
2023-04-11T06:54:11.411Z,2.13
2023-04-11T06:56:42.886Z,1.40
2023-04-11T06:59:14.361Z,1.60
2023-04-11T07:01:46.053Z,1.88
2023-04-11T07:04:17.727Z,2.53
2023-04-11T07:06:49.626Z,1.65
2023-04-11T07:09:21.075Z,1.60
2023-04-11T07:11:52.796Z,1.90
2023-04-11T07:14:24.263Z,1.98
2023-04-11T07:16:55.911Z,2.17
2023-04-11T07:19:27.394Z,1.60
2023-04-11T07:21:59.244Z,1.85
2023-04-11T07:24:30.756Z,2.00
2023-04-11T07:27:02.240Z,1.60
2023-04-11T07:29:33.690Z,1.55
2023-04-11T07:32:05.181Z,2.13
2023-04-11T07:34:36.839Z,2.17
2023-04-11T07:37:08.332Z,1.77
2023-04-11T07:39:40.038Z,1.50
2023-04-11T07:42:11.479Z,1.80
2023-04-11T07:44:43.310Z,1.55
2023-04-11T07:47:14.761Z,1.55
2023-04-11T07:49:46.651Z,1.33
2023-04-11T07:52:18.119Z,1.40
2023-04-11T07:54:49.974Z,1.60
2023-04-11T07:57:21.431Z,1.48
2023-04-11T07:59:53.226Z,1.52
2023-04-11T08:02:24.798Z,1.63
2023-04-11T08:04:56.799Z,1.48
2023-04-11T08:07:28.302Z,1.30
2023-04-11T08:10:00.255Z,1.13
2023-04-11T08:12:31.722Z,1.63
2023-04-11T08:15:03.204Z,1.50
2023-04-11T08:17:34.729Z,1.40
2023-04-11T08:20:06.561Z,1.17
2023-04-11T08:22:38.029Z,1.90
2023-04-11T08:25:09.868Z,1.23
2023-04-11T08:27:41.348Z,1.30
2023-04-11T08:30:13.137Z,1.73
2023-04-11T08:32:44.674Z,1.05
2023-04-11T08:35:16.526Z,0.70
2023-04-11T08:37:48.069Z,1.10
2023-04-11T08:40:20.172Z,0.75
2023-04-11T08:42:51.989Z,1.10
2023-04-11T08:45:23.470Z,0.80
2023-04-11T08:47:55.608Z,0.90
2023-04-11T08:50:27.115Z,0.85
2023-04-11T08:52:58.896Z,0.80
2023-04-11T08:55:30.460Z,0.75
2023-04-11T08:58:02.432Z,0.40
2023-04-11T09:00:34.218Z,0.82
2023-04-11T09:03:06.464Z,0.40
2023-04-11T09:05:38.107Z,0.43
2023-04-11T09:08:09.896Z,0.60
2023-04-11T09:10:41.707Z,0.75
2023-04-11T09:13:13.660Z,0.40
2023-04-11T09:15:45.242Z,0.60
2023-04-11T09:18:17.068Z,0.90
2023-04-11T09:20:48.545Z,0.80
2023-04-11T09:23:20.557Z,0.50
2023-04-11T09:25:52.175Z,0.70
2023-04-11T09:28:24.132Z,0.63
2023-04-11T09:30:55.670Z,0.50
2023-04-11T09:33:27.608Z,0.80
2023-04-11T09:35:59.145Z,0.40
2023-04-11T09:38:30.745Z,0.73
2023-04-11T09:41:02.299Z,0.63
2023-04-11T09:43:33.854Z,0.60
2023-04-11T09:46:05.315Z,0.82
2023-04-11T09:48:46.093Z,0.60
2023-04-11T09:51:34.291Z,0.60
2023-04-11T09:54:07.413Z,0.60
2023-04-11T09:56:38.901Z,0.88
2023-04-11T09:59:10.707Z,0.80
2023-04-11T10:01:42.425Z,0.70
2023-04-11T10:04:14.298Z,0.75
2023-04-11T10:06:45.814Z,0.47
2023-04-11T10:09:17.494Z,0.60
2023-04-11T10:11:49.000Z,0.80
2023-04-11T10:14:20.826Z,0.60
2023-04-11T10:16:52.285Z,0.93
2023-04-11T10:19:23.899Z,0.68
2023-04-11T10:21:55.358Z,0.93
2023-04-11T10:24:27.189Z,0.70
2023-04-11T10:26:58.708Z,0.77
2023-04-11T10:29:30.254Z,0.70
2023-04-11T10:32:01.882Z,0.68
2023-04-11T10:34:33.605Z,0.50
2023-04-11T10:37:05.100Z,0.88
2023-04-11T10:39:37.030Z,0.82
2023-04-11T10:42:08.540Z,0.45
2023-04-11T10:44:40.177Z,0.85
2023-04-11T10:47:11.960Z,0.45
2023-04-11T10:49:44.971Z,0.38
2023-04-11T10:52:17.077Z,0.60
2023-04-11T10:54:48.853Z,0.65
2023-04-11T10:57:20.352Z,0.60
2023-04-11T10:59:52.095Z,0.50
2023-04-11T11:02:23.665Z,0.50
2023-04-11T11:04:55.550Z,0.50
2023-04-11T11:07:27.034Z,0.55
2023-04-11T11:09:58.692Z,0.50
2023-04-11T11:12:30.209Z,0.35
2023-04-11T11:15:01.751Z,0.55
2023-04-11T11:17:33.253Z,0.77
2023-04-11T11:20:05.105Z,0.60
2023-04-11T11:22:36.633Z,0.60
2023-04-11T11:25:08.223Z,0.63
2023-04-11T11:27:39.729Z,0.50
2023-04-11T11:30:12.009Z,0.57
2023-04-11T11:32:43.493Z,0.70
2023-04-11T11:35:15.138Z,0.60
2023-04-11T11:37:46.589Z,0.50
2023-04-11T11:40:18.329Z,0.50
2023-04-11T11:42:50.143Z,0.70
2023-04-11T11:45:21.629Z,0.40
2023-04-11T11:47:53.544Z,0.30
2023-04-11T11:50:24.992Z,0.50
2023-04-11T11:52:56.760Z,0.47
2023-04-11T11:55:28.217Z,0.73
2023-04-11T11:57:59.949Z,0.47
2023-04-11T12:00:31.490Z,0.80
2023-04-11T12:03:03.497Z,0.50
2023-04-11T12:05:35.124Z,0.57
2023-04-11T12:08:07.007Z,0.40
2023-04-11T12:10:38.512Z,0.50
2023-04-11T12:13:10.409Z,0.50
2023-04-11T12:15:41.952Z,0.40
2023-04-11T12:18:13.858Z,0.38
2023-04-11T12:20:45.397Z,0.50
2023-04-11T12:23:17.195Z,0.40
2023-04-11T12:25:49.076Z,0.57
2023-04-11T12:28:20.931Z,0.40
2023-04-11T12:30:52.451Z,0.45
2023-04-11T12:33:24.272Z,0.55
2023-04-11T12:35:55.722Z,0.60
2023-04-11T12:38:27.504Z,0.60
2023-04-11T12:41:19.868Z,0.47
2023-04-11T12:43:50.655Z,0.50
2023-04-11T12:46:22.134Z,0.73
2023-04-11T12:48:54.336Z,0.60
2023-04-11T12:51:25.994Z,0.52
2023-04-11T12:53:57.765Z,0.40
2023-04-11T12:56:29.247Z,0.30
2023-04-11T12:59:01.077Z,0.65
2023-04-11T13:01:32.644Z,0.63
2023-04-11T13:04:04.623Z,0.50
2023-04-11T13:06:36.185Z,0.60
2023-04-11T13:09:07.990Z,0.40
2023-04-11T13:11:39.672Z,0.40
2023-04-11T13:14:11.574Z,0.25
2023-04-11T13:16:43.699Z,0.23
2023-04-11T13:19:15.203Z,0.50
2023-04-11T13:21:46.975Z,0.20
2023-04-11T13:24:18.592Z,0.47
2023-04-11T13:26:50.495Z,0.40
2023-04-11T13:29:22.040Z,0.20
2023-04-11T13:31:53.886Z,0.20
2023-04-11T13:34:25.395Z,0.20
2023-04-11T13:36:57.106Z,0.30
2023-04-11T13:39:28.615Z,0.20
2023-04-11T13:42:00.459Z,0.20
2023-04-11T13:44:31.942Z,0.43
2023-04-11T13:47:03.743Z,0.30
2023-04-11T13:49:35.331Z,0.30
2023-04-11T13:52:07.236Z,0.40
2023-04-11T13:54:38.732Z,0.28
2023-04-11T13:57:10.215Z,0.20
2023-04-11T13:59:41.685Z,0.40
2023-04-11T14:02:14.048Z,0.30
2023-04-11T14:04:45.561Z,0.40
2023-04-11T14:07:17.390Z,0.63
2023-04-11T14:09:48.933Z,0.25
2023-04-11T14:12:20.732Z,0.65
2023-04-11T14:14:52.201Z,0.30
2023-04-11T14:17:24.114Z,0.40
2023-04-11T14:19:55.629Z,0.35
2023-04-11T14:22:27.417Z,0.20
2023-04-11T14:24:58.849Z,0.20
2023-04-11T14:27:30.292Z,0.20
2023-04-11T14:30:01.833Z,0.30
2023-04-11T14:32:33.531Z,0.30
2023-04-11T14:35:05.044Z,0.10
2023-04-11T14:37:36.713Z,0.30
2023-04-11T14:40:08.180Z,0.22
2023-04-11T14:42:39.837Z,0.45
2023-04-11T14:45:11.280Z,0.20
2023-04-11T14:47:43.255Z,0.30
2023-04-11T14:50:14.720Z,0.50
2023-04-11T14:52:46.174Z,0.40
2023-04-11T14:55:17.686Z,0.30
2023-04-11T14:57:49.405Z,0.20
2023-04-11T15:00:20.893Z,0.40
2023-04-11T15:02:52.883Z,0.55
2023-04-11T15:05:24.610Z,0.20
2023-04-11T15:07:56.426Z,0.30
2023-04-11T15:10:27.888Z,0.20
2023-04-11T15:12:59.651Z,0.30
2023-04-11T15:15:31.185Z,0.35
2023-04-11T15:18:03.094Z,0.20
2023-04-11T15:20:34.609Z,0.30
2023-04-11T15:23:06.423Z,0.30
2023-04-11T15:25:37.929Z,0.52
2023-04-11T15:28:09.581Z,0.40
2023-04-11T15:30:41.055Z,0.40
2023-04-11T15:33:12.556Z,0.30
2023-04-11T15:35:44.030Z,0.20
2023-04-11T15:38:15.923Z,0.30
2023-04-11T15:40:47.411Z,0.30
2023-04-11T15:43:19.244Z,0.30
2023-04-11T15:45:50.715Z,0.30
2023-04-11T15:48:22.492Z,0.30
2023-04-11T15:50:53.970Z,0.30
2023-04-11T15:53:25.865Z,0.30
2023-04-11T15:55:57.375Z,0.30
2023-04-11T15:58:30.215Z,0.30
2023-04-11T16:01:02.851Z,0.32
2023-04-11T16:03:34.573Z,0.32
2023-04-11T16:06:06.210Z,0.30
2023-04-11T16:08:38.036Z,0.38
2023-04-11T16:11:09.583Z,0.47
2023-04-11T16:13:41.063Z,0.30
2023-04-11T16:16:12.650Z,0.38
2023-04-11T16:18:44.760Z,0.22
2023-04-11T16:21:16.323Z,0.23
2023-04-11T16:23:47.964Z,0.32
2023-04-11T16:26:19.428Z,0.30
2023-04-11T16:28:51.092Z,0.15
2023-04-11T16:31:23.044Z,0.52
2023-04-11T16:33:55.100Z,0.47
2023-04-11T16:36:27.300Z,0.50
2023-04-11T16:38:58.741Z,0.45
2023-04-11T16:41:30.206Z,0.50
2023-04-11T16:44:01.662Z,0.52
2023-04-11T16:46:33.146Z,0.20
2023-04-11T16:49:04.618Z,0.40
2023-04-11T16:51:36.189Z,0.50
2023-04-11T16:54:07.686Z,0.50
2023-04-11T16:56:39.525Z,0.50
2023-04-11T16:59:10.994Z,0.32
2023-04-11T17:01:42.836Z,0.52
2023-04-11T17:04:14.504Z,0.30
2023-04-11T17:06:46.321Z,0.47
2023-04-11T17:09:17.798Z,0.30
2023-04-11T17:11:49.750Z,0.22
2023-04-11T17:14:21.255Z,0.77
2023-04-11T17:16:52.977Z,0.20
2023-04-11T17:19:25.635Z,0.30
2023-04-11T17:21:57.654Z,0.60
2023-04-11T17:24:29.319Z,0.25
2023-04-11T17:27:00.850Z,0.35
2023-04-11T17:29:32.379Z,0.40
2023-04-11T17:32:04.173Z,0.35
2023-04-11T17:34:35.635Z,0.20
2023-04-11T17:37:07.363Z,0.30
2023-04-11T17:39:38.840Z,0.28
2023-04-11T17:42:10.703Z,0.63
2023-04-11T17:44:42.202Z,0.60
2023-04-11T17:47:13.756Z,0.40
2023-04-11T17:49:45.228Z,0.40
2023-04-11T17:52:17.097Z,0.47
2023-04-11T17:54:48.576Z,0.35
2023-04-11T17:57:20.094Z,0.57
2023-04-11T17:59:51.622Z,0.55
2023-04-11T18:02:23.445Z,0.35
2023-04-11T18:04:55.148Z,0.50
2023-04-11T18:07:27.035Z,0.45
2023-04-11T18:09:58.536Z,0.85
2023-04-11T18:12:30.043Z,0.32
2023-04-11T18:15:01.548Z,0.35
2023-04-11T18:17:33.051Z,0.30
2023-04-11T18:20:04.515Z,0.55
2023-04-11T18:22:36.032Z,0.38
2023-04-11T18:25:07.528Z,0.65
2023-04-11T18:27:39.417Z,0.40
2023-04-11T18:30:10.911Z,0.40
2023-04-11T18:32:47.641Z,0.40
2023-04-11T18:35:20.778Z,0.43
2023-04-11T18:37:52.332Z,0.20
2023-04-11T18:40:23.839Z,0.57
2023-04-11T18:42:56.411Z,0.40
2023-04-11T18:48:00.316Z,0.60
2023-04-11T18:50:32.000Z,0.30
2023-04-11T18:53:06.188Z,0.50
2023-04-11T18:55:41.108Z,0.43
2023-04-11T18:58:15.890Z,0.20
2023-04-11T19:00:49.180Z,0.38
2023-04-11T19:03:21.246Z,0.32
2023-04-11T19:05:52.996Z,0.30
2023-04-11T19:08:24.801Z,0.82
2023-04-11T19:10:56.287Z,0.30
2023-04-11T19:13:27.765Z,0.47
2023-04-11T19:15:59.617Z,0.30
2023-04-11T19:18:31.111Z,0.38
2023-04-11T19:21:02.635Z,0.40
2023-04-11T19:23:34.135Z,0.50
2023-04-11T19:26:05.798Z,0.65
2023-04-11T19:28:37.293Z,0.40
2023-04-11T19:31:09.115Z,0.52
2023-04-11T19:33:40.581Z,0.30
2023-04-11T19:36:12.381Z,0.20
2023-04-11T19:38:43.913Z,0.38
2023-04-11T19:41:15.718Z,0.50
2023-04-11T19:43:47.178Z,0.30
2023-04-11T19:46:20.268Z,0.50
2023-04-11T19:48:51.791Z,0.40
2023-04-11T19:51:23.568Z,1.05
2023-04-11T19:53:55.308Z,0.30
2023-04-11T19:56:27.403Z,0.37
2023-04-11T19:58:58.863Z,0.20
2023-04-11T20:01:30.373Z,0.52
2023-04-11T20:04:02.265Z,0.70
2023-04-11T20:06:34.095Z,0.57
2023-04-11T20:09:05.578Z,0.43
2023-04-11T20:11:37.405Z,0.50
2023-04-11T20:14:08.878Z,0.40
2023-04-11T20:16:40.663Z,0.40
2023-04-11T20:19:12.126Z,0.60
2023-04-11T20:21:44.130Z,0.73
2023-04-11T20:24:15.596Z,0.53
2023-04-11T20:26:47.291Z,0.52
2023-04-11T20:29:18.777Z,0.50
2023-04-11T20:31:50.577Z,0.38
2023-04-11T20:34:22.042Z,0.50
2023-04-11T20:36:53.818Z,0.68
2023-04-11T20:39:25.296Z,1.00
2023-04-11T20:41:57.097Z,0.70
2023-04-11T20:44:28.568Z,1.00
2023-04-11T20:47:00.354Z,0.55
2023-04-11T20:49:31.810Z,0.40
2023-04-11T20:52:03.728Z,0.80
2023-04-11T20:54:35.211Z,0.90
2023-04-11T20:57:06.974Z,0.55
2023-04-11T20:59:38.430Z,0.60
2023-04-11T21:02:10.370Z,0.80
2023-04-11T21:04:41.972Z,0.43
2023-04-11T21:07:13.894Z,0.63
2023-04-11T21:09:45.357Z,1.10
2023-04-11T21:12:17.161Z,1.30
2023-04-11T21:14:48.616Z,0.82
2023-04-11T21:17:20.390Z,0.45
2023-04-11T21:19:51.880Z,0.50
2023-04-11T21:22:23.840Z,0.70
2023-04-11T21:24:55.308Z,0.37
2023-04-11T21:27:26.816Z,0.30
2023-04-11T21:29:58.286Z,0.40
2023-04-11T21:32:30.153Z,0.75
2023-04-11T21:35:01.663Z,0.80
2023-04-11T21:37:33.187Z,0.50
2023-04-11T21:40:04.663Z,0.80
2023-04-11T21:42:36.150Z,0.80
2023-04-11T21:45:07.609Z,0.30
2023-04-11T21:47:39.514Z,0.57
2023-04-11T21:50:11.023Z,0.30
2023-04-11T21:52:42.812Z,0.70
2023-04-11T21:55:14.275Z,0.70
2023-04-11T21:57:46.016Z,0.30
2023-04-11T22:00:17.487Z,0.60
2023-04-11T22:02:49.605Z,0.47
2023-04-11T22:05:21.388Z,0.63
2023-04-11T22:07:53.358Z,1.00
2023-04-11T22:10:26.982Z,0.40
2023-04-11T22:13:00.483Z,0.30
2023-04-11T22:15:31.952Z,0.20
2023-04-11T22:18:03.834Z,0.60
2023-04-11T22:20:35.379Z,0.30
2023-04-11T22:23:07.157Z,0.50
2023-04-11T22:25:38.643Z,0.63
2023-04-11T22:28:10.276Z,0.40
2023-04-11T22:30:41.748Z,0.75
2023-04-11T22:33:13.574Z,0.32
2023-04-11T22:35:45.172Z,0.63
2023-04-11T22:38:17.051Z,0.65
2023-04-11T22:40:48.569Z,0.22
2023-04-11T22:43:20.385Z,0.50
2023-04-11T22:45:51.850Z,0.50
2023-04-11T22:48:23.733Z,0.68
2023-04-11T22:50:55.191Z,0.52
2023-04-11T22:53:27.115Z,0.57
2023-04-11T22:55:58.579Z,0.43
2023-04-11T22:58:30.060Z,0.93
2023-04-11T23:01:01.600Z,0.50
2023-04-11T23:03:33.133Z,0.40
2023-04-11T23:06:04.595Z,0.60
2023-04-11T23:08:36.164Z,0.65
2023-04-11T23:11:07.644Z,0.43
2023-04-11T23:13:39.319Z,0.70
2023-04-11T23:16:10.876Z,0.63
2023-04-11T23:18:42.610Z,0.60
2023-04-11T23:21:14.088Z,0.52
2023-04-11T23:23:45.907Z,0.70
2023-04-11T23:26:17.382Z,0.40
2023-04-11T23:28:49.407Z,0.55
2023-04-11T23:31:20.901Z,0.75
2023-04-11T23:33:52.610Z,0.40
2023-04-11T23:36:24.090Z,0.70
2023-04-11T23:38:55.835Z,1.05
2023-04-11T23:41:27.634Z,1.38
2023-04-11T23:43:59.230Z,0.88
2023-04-11T23:46:30.878Z,0.47
2023-04-11T23:49:02.414Z,0.30
2023-04-11T23:51:33.993Z,0.50
2023-04-11T23:54:05.520Z,0.90
2023-04-11T23:56:37.289Z,1.00
2023-04-11T23:59:08.750Z,0.65
